Terminal Aerodrome Forecast
Issued by NWS Sterling, VA

Current Version | Previous Version | Text Only | Print | Product List | Glossary Off
Versions: 1 2 3 4 5 6 7 8 9 10 11 12 13 14 15 16 17 18

000
FTUS41 KLWX 211400 AAA
TAFMRB
TAF AMD
KMRB 211438Z 2115/2212 30012G20KT P6SM SCT050
     FM212100 30009KT P6SM SKC
     FM220000 31004KT P6SM SKC=

USA.gov is the U.S. government's official web portal to all federal, state and local government web resources and services.